Hebron, Maryland
Current Conditions -  °F | °C
As of 9:01 AM on Monday 24 Nov 2014 (Local Time) from KSBY Reporting Station
Overcast Overcast  
Wind Chill: 70°   Ceiling: 1600
Heat Index: 70°   Visibility: 10mi
Dew Point: 64°   Wind: 18mph
Humidity: 81%   Direction: 210°SSW
Pressure: 29.75"   Gusts: NA
Location:  38.42°N, 75.69°W
Report Text: KSBY 241401Z 21016KT 10SM OVC016 21/18 A2975 RMK AO2 T02110178
Loading
Personal Weather Stations






























Interactive Weather Map New forecast layout! Learn more

10-Day Weather Forecast

Advertisements
Track Severe Weather on mobile